sensor_id;sensor_type;location;lat;lon;timestamp;temperature;humidity
35746;DHT22;21870;42.812;74.628;2023-03-15T00:00:53;10.50;99.90
35746;DHT22;21870;42.812;74.628;2023-03-15T00:03:20;10.50;99.90
35746;DHT22;21870;42.812;74.628;2023-03-15T00:05:47;10.40;99.90
35746;DHT22;21870;42.812;74.628;2023-03-15T00:08:14;10.40;99.90
35746;DHT22;21870;42.812;74.628;2023-03-15T00:10:45;10.40;99.90
35746;DHT22;21870;42.812;74.628;2023-03-15T00:13:12;10.40;99.90
35746;DHT22;21870;42.812;74.628;2023-03-15T00:15:58;10.40;99.90
35746;DHT22;21870;42.812;74.628;2023-03-15T00:18:25;10.40;99.90
35746;DHT22;21870;42.812;74.628;2023-03-15T00:20:52;10.40;99.90
35746;DHT22;21870;42.812;74.628;2023-03-15T00:23:18;10.40;99.90
35746;DHT22;21870;42.812;74.628;2023-03-15T00:25:45;10.50;99.90
35746;DHT22;21870;42.812;74.628;2023-03-15T00:28:15;10.50;99.90
35746;DHT22;21870;42.812;74.628;2023-03-15T00:30:41;10.40;99.90
35746;DHT22;21870;42.812;74.628;2023-03-15T00:33:07;10.40;99.90
35746;DHT22;21870;42.812;74.628;2023-03-15T00:35:39;10.30;99.90
35746;DHT22;21870;42.812;74.628;2023-03-15T00:38:05;10.20;99.90
35746;DHT22;21870;42.812;74.628;2023-03-15T00:40:31;10.20;99.90
35746;DHT22;21870;42.812;74.628;2023-03-15T00:42:57;10.10;99.90
35746;DHT22;21870;42.812;74.628;2023-03-15T00:45:24;10.20;99.90
35746;DHT22;21870;42.812;74.628;2023-03-15T00:47:51;10.20;99.90
35746;DHT22;21870;42.812;74.628;2023-03-15T00:50:18;10.10;99.90
35746;DHT22;21870;42.812;74.628;2023-03-15T00:52:44;10.10;99.90
35746;DHT22;21870;42.812;74.628;2023-03-15T00:55:13;10.10;99.90
35746;DHT22;21870;42.812;74.628;2023-03-15T00:57:40;10.20;99.90
35746;DHT22;21870;42.812;74.628;2023-03-15T01:00:13;10.20;99.90
35746;DHT22;21870;42.812;74.628;2023-03-15T01:02:39;10.10;99.90
35746;DHT22;21870;42.812;74.628;2023-03-15T01:05:07;10.10;99.90
35746;DHT22;21870;42.812;74.628;2023-03-15T01:07:33;10.10;99.90
35746;DHT22;21870;42.812;74.628;2023-03-15T01:10:04;10.10;99.90
35746;DHT22;21870;42.812;74.628;2023-03-15T01:12:32;10.10;99.90
35746;DHT22;21870;42.812;74.628;2023-03-15T01:14:59;10.20;99.90
35746;DHT22;21870;42.812;74.628;2023-03-15T01:17:25;10.20;99.90
35746;DHT22;21870;42.812;74.628;2023-03-15T01:19:51;10.20;99.90
35746;DHT22;21870;42.812;74.628;2023-03-15T01:22:20;10.30;99.90
35746;DHT22;21870;42.812;74.628;2023-03-15T01:24:46;10.40;99.90
35746;DHT22;21870;42.812;74.628;2023-03-15T01:27:13;10.40;99.90
35746;DHT22;21870;42.812;74.628;2023-03-15T01:29:39;10.40;99.90
35746;DHT22;21870;42.812;74.628;2023-03-15T01:32:05;10.40;99.90
35746;DHT22;21870;42.812;74.628;2023-03-15T01:34:31;10.50;99.90
35746;DHT22;21870;42.812;74.628;2023-03-15T01:37:00;10.60;99.90
35746;DHT22;21870;42.812;74.628;2023-03-15T01:39:28;10.70;99.90
35746;DHT22;21870;42.812;74.628;2023-03-15T01:41:54;10.70;99.90
35746;DHT22;21870;42.812;74.628;2023-03-15T01:44:20;10.70;99.90
35746;DHT22;21870;42.812;74.628;2023-03-15T01:46:49;10.90;99.90
35746;DHT22;21870;42.812;74.628;2023-03-15T01:49:32;11.00;99.90
35746;DHT22;21870;42.812;74.628;2023-03-15T01:52:14;11.10;99.90
35746;DHT22;21870;42.812;74.628;2023-03-15T01:54:51;11.20;99.90
35746;DHT22;21870;42.812;74.628;2023-03-15T01:57:20;11.30;99.90
35746;DHT22;21870;42.812;74.628;2023-03-15T02:00:10;11.30;99.90
35746;DHT22;21870;42.812;74.628;2023-03-15T02:02:40;11.40;99.90
35746;DHT22;21870;42.812;74.628;2023-03-15T02:05:14;11.50;99.90
35746;DHT22;21870;42.812;74.628;2023-03-15T02:07:43;11.50;99.90
35746;DHT22;21870;42.812;74.628;2023-03-15T02:10:22;11.60;99.90
35746;DHT22;21870;42.812;74.628;2023-03-15T02:12:51;11.60;99.90
35746;DHT22;21870;42.812;74.628;2023-03-15T02:15:18;11.70;99.90
35746;DHT22;21870;42.812;74.628;2023-03-15T02:17:46;11.80;99.90
35746;DHT22;21870;42.812;74.628;2023-03-15T02:22:55;11.90;99.90
35746;DHT22;21870;42.812;74.628;2023-03-15T02:25:39;11.90;99.90
35746;DHT22;21870;42.812;74.628;2023-03-15T02:28:09;12.00;99.90
35746;DHT22;21870;42.812;74.628;2023-03-15T02:30:36;12.10;99.90
35746;DHT22;21870;42.812;74.628;2023-03-15T02:33:04;12.10;99.90
35746;DHT22;21870;42.812;74.628;2023-03-15T02:35:32;12.20;99.90
35746;DHT22;21870;42.812;74.628;2023-03-15T02:37:58;12.20;99.30
35746;DHT22;21870;42.812;74.628;2023-03-15T02:40:28;12.30;98.90
35746;DHT22;21870;42.812;74.628;2023-03-15T02:42:58;12.30;99.70
35746;DHT22;21870;42.812;74.628;2023-03-15T02:45:26;12.40;99.90
35746;DHT22;21870;42.812;74.628;2023-03-15T02:47:54;12.40;99.90
35746;DHT22;21870;42.812;74.628;2023-03-15T02:50:20;12.50;99.90
35746;DHT22;21870;42.812;74.628;2023-03-15T02:52:46;12.50;99.90
35746;DHT22;21870;42.812;74.628;2023-03-15T02:55:13;12.60;99.90
35746;DHT22;21870;42.812;74.628;2023-03-15T02:57:39;12.60;99.90
35746;DHT22;21870;42.812;74.628;2023-03-15T03:00:05;12.60;99.90
35746;DHT22;21870;42.812;74.628;2023-03-15T03:02:40;12.70;99.90
35746;DHT22;21870;42.812;74.628;2023-03-15T03:05:11;12.70;99.90
35746;DHT22;21870;42.812;74.628;2023-03-15T03:07:37;12.80;99.90
35746;DHT22;21870;42.812;74.628;2023-03-15T03:10:07;12.80;99.90
35746;DHT22;21870;42.812;74.628;2023-03-15T03:12:34;12.90;99.90
35746;DHT22;21870;42.812;74.628;2023-03-15T03:15:00;12.90;99.90
35746;DHT22;21870;42.812;74.628;2023-03-15T03:17:29;13.10;99.90
35746;DHT22;21870;42.812;74.628;2023-03-15T03:19:55;13.20;99.90
35746;DHT22;21870;42.812;74.628;2023-03-15T03:22:22;13.30;99.90
35746;DHT22;21870;42.812;74.628;2023-03-15T03:24:52;13.50;99.90
35746;DHT22;21870;42.812;74.628;2023-03-15T03:27:18;13.60;99.90
35746;DHT22;21870;42.812;74.628;2023-03-15T03:29:44;13.90;99.90
35746;DHT22;21870;42.812;74.628;2023-03-15T03:32:10;14.00;99.90
35746;DHT22;21870;42.812;74.628;2023-03-15T03:34:37;14.10;99.90
35746;DHT22;21870;42.812;74.628;2023-03-15T03:37:03;14.30;99.90
35746;DHT22;21870;42.812;74.628;2023-03-15T03:39:29;14.50;99.90
35746;DHT22;21870;42.812;74.628;2023-03-15T03:41:55;14.60;99.90
35746;DHT22;21870;42.812;74.628;2023-03-15T03:44:21;14.80;99.90
35746;DHT22;21870;42.812;74.628;2023-03-15T03:46:47;14.90;99.90
35746;DHT22;21870;42.812;74.628;2023-03-15T03:49:13;15.10;99.90
35746;DHT22;21870;42.812;74.628;2023-03-15T03:51:39;15.40;99.90
35746;DHT22;21870;42.812;74.628;2023-03-15T03:54:06;15.70;99.90
35746;DHT22;21870;42.812;74.628;2023-03-15T03:56:32;15.80;99.90
35746;DHT22;21870;42.812;74.628;2023-03-15T03:58:58;16.00;99.90
35746;DHT22;21870;42.812;74.628;2023-03-15T04:01:24;16.30;99.90
35746;DHT22;21870;42.812;74.628;2023-03-15T04:03:50;16.70;99.90
35746;DHT22;21870;42.812;74.628;2023-03-15T04:06:16;16.90;99.90
35746;DHT22;21870;42.812;74.628;2023-03-15T04:08:42;17.20;99.90
35746;DHT22;21870;42.812;74.628;2023-03-15T04:11:08;17.10;99.90
35746;DHT22;21870;42.812;74.628;2023-03-15T04:13:34;16.90;99.90
35746;DHT22;21870;42.812;74.628;2023-03-15T04:16:01;16.90;99.90
35746;DHT22;21870;42.812;74.628;2023-03-15T04:18:28;16.50;99.90
35746;DHT22;21870;42.812;74.628;2023-03-15T04:20:54;16.30;99.90
35746;DHT22;21870;42.812;74.628;2023-03-15T04:23:21;16.10;99.90
35746;DHT22;21870;42.812;74.628;2023-03-15T04:25:48;15.90;99.90
35746;DHT22;21870;42.812;74.628;2023-03-15T04:28:15;15.80;99.90
35746;DHT22;21870;42.812;74.628;2023-03-15T04:30:41;15.70;99.90
35746;DHT22;21870;42.812;74.628;2023-03-15T04:33:08;15.60;99.90
35746;DHT22;21870;42.812;74.628;2023-03-15T04:35:36;15.50;99.90
35746;DHT22;21870;42.812;74.628;2023-03-15T04:38:07;15.30;99.90
35746;DHT22;21870;42.812;74.628;2023-03-15T04:40:34;15.30;99.90
35746;DHT22;21870;42.812;74.628;2023-03-15T04:43:04;15.20;99.90
35746;DHT22;21870;42.812;74.628;2023-03-15T04:45:31;15.20;99.90
35746;DHT22;21870;42.812;74.628;2023-03-15T04:47:58;15.20;99.90
35746;DHT22;21870;42.812;74.628;2023-03-15T04:50:24;15.40;99.90
35746;DHT22;21870;42.812;74.628;2023-03-15T04:52:50;15.20;99.90
35746;DHT22;21870;42.812;74.628;2023-03-15T04:55:16;15.30;99.90
35746;DHT22;21870;42.812;74.628;2023-03-15T04:57:42;15.40;99.90
35746;DHT22;21870;42.812;74.628;2023-03-15T05:00:09;15.20;99.90
35746;DHT22;21870;42.812;74.628;2023-03-15T05:02:38;15.40;99.90
35746;DHT22;21870;42.812;74.628;2023-03-15T05:05:10;15.60;99.90
35746;DHT22;21870;42.812;74.628;2023-03-15T05:07:36;15.90;99.90
35746;DHT22;21870;42.812;74.628;2023-03-15T05:10:04;15.90;99.90
35746;DHT22;21870;42.812;74.628;2023-03-15T05:12:31;16.10;99.90
35746;DHT22;21870;42.812;74.628;2023-03-15T05:14:58;16.20;99.90
35746;DHT22;21870;42.812;74.628;2023-03-15T05:17:25;16.50;99.90
35746;DHT22;21870;42.812;74.628;2023-03-15T05:19:51;16.70;99.90
35746;DHT22;21870;42.812;74.628;2023-03-15T05:22:17;16.80;99.90
35746;DHT22;21870;42.812;74.628;2023-03-15T05:24:43;17.00;99.90
35746;DHT22;21870;42.812;74.628;2023-03-15T05:27:10;17.20;99.90
35746;DHT22;21870;42.812;74.628;2023-03-15T05:29:38;17.40;99.90
35746;DHT22;21870;42.812;74.628;2023-03-15T05:32:04;17.60;99.90
35746;DHT22;21870;42.812;74.628;2023-03-15T05:34:30;17.50;99.90
35746;DHT22;21870;42.812;74.628;2023-03-15T05:36:57;17.50;99.90
35746;DHT22;21870;42.812;74.628;2023-03-15T05:39:24;17.30;99.90
35746;DHT22;21870;42.812;74.628;2023-03-15T05:41:50;17.40;99.90
35746;DHT22;21870;42.812;74.628;2023-03-15T05:44:16;17.60;99.90
35746;DHT22;21870;42.812;74.628;2023-03-15T05:46:42;17.70;99.90
35746;DHT22;21870;42.812;74.628;2023-03-15T05:49:09;17.80;99.90
35746;DHT22;21870;42.812;74.628;2023-03-15T05:51:35;17.90;99.90
35746;DHT22;21870;42.812;74.628;2023-03-15T05:54:01;17.90;99.90
35746;DHT22;21870;42.812;74.628;2023-03-15T05:56:27;17.80;99.90
35746;DHT22;21870;42.812;74.628;2023-03-15T05:58:53;17.80;99.90
35746;DHT22;21870;42.812;74.628;2023-03-15T06:01:19;17.60;99.90
35746;DHT22;21870;42.812;74.628;2023-03-15T06:03:45;17.40;99.90
35746;DHT22;21870;42.812;74.628;2023-03-15T06:06:11;17.40;99.90
35746;DHT22;21870;42.812;74.628;2023-03-15T06:08:37;17.30;99.90
35746;DHT22;21870;42.812;74.628;2023-03-15T06:11:03;17.20;99.90
35746;DHT22;21870;42.812;74.628;2023-03-15T06:13:29;17.30;99.90
35746;DHT22;21870;42.812;74.628;2023-03-15T06:15:55;17.40;99.90
35746;DHT22;21870;42.812;74.628;2023-03-15T06:18:21;17.40;99.90
35746;DHT22;21870;42.812;74.628;2023-03-15T06:20:47;17.50;99.90
35746;DHT22;21870;42.812;74.628;2023-03-15T06:23:13;17.60;99.90
35746;DHT22;21870;42.812;74.628;2023-03-15T06:25:40;17.30;99.90
35746;DHT22;21870;42.812;74.628;2023-03-15T06:28:06;17.60;99.90
35746;DHT22;21870;42.812;74.628;2023-03-15T06:30:32;17.60;99.90
35746;DHT22;21870;42.812;74.628;2023-03-15T06:32:59;17.80;99.90
35746;DHT22;21870;42.812;74.628;2023-03-15T06:35:25;17.60;99.90
35746;DHT22;21870;42.812;74.628;2023-03-15T06:37:51;17.80;99.90
35746;DHT22;21870;42.812;74.628;2023-03-15T06:40:18;18.00;99.90
35746;DHT22;21870;42.812;74.628;2023-03-15T06:42:44;18.30;99.90
35746;DHT22;21870;42.812;74.628;2023-03-15T06:45:10;18.50;99.90
35746;DHT22;21870;42.812;74.628;2023-03-15T06:47:36;18.60;99.90
35746;DHT22;21870;42.812;74.628;2023-03-15T06:50:03;18.60;99.90
35746;DHT22;21870;42.812;74.628;2023-03-15T06:52:30;18.40;99.90
35746;DHT22;21870;42.812;74.628;2023-03-15T06:54:56;18.40;99.90
35746;DHT22;21870;42.812;74.628;2023-03-15T06:57:22;18.30;99.90
35746;DHT22;21870;42.812;74.628;2023-03-15T06:59:48;18.20;99.90
35746;DHT22;21870;42.812;74.628;2023-03-15T07:02:16;17.90;99.90
35746;DHT22;21870;42.812;74.628;2023-03-15T07:04:43;17.60;99.90
35746;DHT22;21870;42.812;74.628;2023-03-15T07:07:10;17.60;99.90
35746;DHT22;21870;42.812;74.628;2023-03-15T07:09:37;17.60;99.90
35746;DHT22;21870;42.812;74.628;2023-03-15T07:12:03;17.60;99.90
35746;DHT22;21870;42.812;74.628;2023-03-15T07:14:29;17.50;99.90
35746;DHT22;21870;42.812;74.628;2023-03-15T07:16:55;17.40;99.90
35746;DHT22;21870;42.812;74.628;2023-03-15T07:19:21;17.30;99.90
35746;DHT22;21870;42.812;74.628;2023-03-15T07:21:47;17.10;99.90
35746;DHT22;21870;42.812;74.628;2023-03-15T07:24:14;16.90;99.90
35746;DHT22;21870;42.812;74.628;2023-03-15T07:26:40;16.90;99.90
35746;DHT22;21870;42.812;74.628;2023-03-15T07:29:06;16.70;99.90
35746;DHT22;21870;42.812;74.628;2023-03-15T07:31:32;16.50;99.90
35746;DHT22;21870;42.812;74.628;2023-03-15T07:33:58;16.30;99.90
35746;DHT22;21870;42.812;74.628;2023-03-15T07:36:24;16.10;99.90
35746;DHT22;21870;42.812;74.628;2023-03-15T07:38:50;16.00;99.90
35746;DHT22;21870;42.812;74.628;2023-03-15T07:41:16;16.00;99.90
35746;DHT22;21870;42.812;74.628;2023-03-15T07:43:42;16.00;99.90
35746;DHT22;21870;42.812;74.628;2023-03-15T07:46:09;16.10;99.90
35746;DHT22;21870;42.812;74.628;2023-03-15T07:48:35;16.00;99.90
35746;DHT22;21870;42.812;74.628;2023-03-15T07:51:01;15.90;99.90
35746;DHT22;21870;42.812;74.628;2023-03-15T07:53:27;15.80;99.90
35746;DHT22;21870;42.812;74.628;2023-03-15T07:55:54;15.70;99.90
35746;DHT22;21870;42.812;74.628;2023-03-15T07:58:20;15.70;99.90
35746;DHT22;21870;42.812;74.628;2023-03-15T08:00:46;15.70;99.90
35746;DHT22;21870;42.812;74.628;2023-03-15T08:03:12;15.70;99.90
35746;DHT22;21870;42.812;74.628;2023-03-15T08:05:38;15.90;99.90
35746;DHT22;21870;42.812;74.628;2023-03-15T08:08:05;15.90;99.90
35746;DHT22;21870;42.812;74.628;2023-03-15T08:10:31;16.20;99.90
35746;DHT22;21870;42.812;74.628;2023-03-15T08:12:57;16.50;99.90
35746;DHT22;21870;42.812;74.628;2023-03-15T08:15:24;16.70;99.90
35746;DHT22;21870;42.812;74.628;2023-03-15T08:17:50;16.70;99.90
35746;DHT22;21870;42.812;74.628;2023-03-15T08:20:17;16.80;99.90
35746;DHT22;21870;42.812;74.628;2023-03-15T08:22:45;16.80;99.90
35746;DHT22;21870;42.812;74.628;2023-03-15T08:25:13;16.60;99.90
35746;DHT22;21870;42.812;74.628;2023-03-15T08:27:40;16.70;99.90
35746;DHT22;21870;42.812;74.628;2023-03-15T08:30:08;16.70;99.90
35746;DHT22;21870;42.812;74.628;2023-03-15T08:32:40;16.80;99.90
35746;DHT22;21870;42.812;74.628;2023-03-15T08:35:07;16.90;99.90
35746;DHT22;21870;42.812;74.628;2023-03-15T08:37:34;17.00;99.90
35746;DHT22;21870;42.812;74.628;2023-03-15T08:40:00;17.10;99.90
35746;DHT22;21870;42.812;74.628;2023-03-15T08:42:32;17.30;99.90
35746;DHT22;21870;42.812;74.628;2023-03-15T08:44:58;17.20;99.90
35746;DHT22;21870;42.812;74.628;2023-03-15T08:47:27;17.20;99.90
35746;DHT22;21870;42.812;74.628;2023-03-15T08:49:53;17.30;99.90
35746;DHT22;21870;42.812;74.628;2023-03-15T08:52:19;17.20;99.90
35746;DHT22;21870;42.812;74.628;2023-03-15T08:54:46;17.10;99.90
35746;DHT22;21870;42.812;74.628;2023-03-15T08:57:13;17.10;99.90
35746;DHT22;21870;42.812;74.628;2023-03-15T08:59:39;16.90;99.90
35746;DHT22;21870;42.812;74.628;2023-03-15T09:02:06;16.80;99.90
35746;DHT22;21870;42.812;74.628;2023-03-15T09:04:32;16.70;99.90
35746;DHT22;21870;42.812;74.628;2023-03-15T09:06:58;16.60;99.90
35746;DHT22;21870;42.812;74.628;2023-03-15T09:09:24;16.50;99.90
35746;DHT22;21870;42.812;74.628;2023-03-15T09:11:50;16.20;99.90
35746;DHT22;21870;42.812;74.628;2023-03-15T09:14:16;16.20;99.90
35746;DHT22;21870;42.812;74.628;2023-03-15T09:16:43;16.20;99.90
35746;DHT22;21870;42.812;74.628;2023-03-15T09:19:09;16.20;99.90
35746;DHT22;21870;42.812;74.628;2023-03-15T09:21:35;16.10;99.90
35746;DHT22;21870;42.812;74.628;2023-03-15T09:24:03;16.00;99.90
35746;DHT22;21870;42.812;74.628;2023-03-15T09:26:29;16.00;99.90
35746;DHT22;21870;42.812;74.628;2023-03-15T09:28:55;16.00;99.90
35746;DHT22;21870;42.812;74.628;2023-03-15T09:31:21;15.80;99.90
35746;DHT22;21870;42.812;74.628;2023-03-15T09:33:47;15.70;99.90
35746;DHT22;21870;42.812;74.628;2023-03-15T09:36:14;15.70;99.90
35746;DHT22;21870;42.812;74.628;2023-03-15T09:38:42;15.60;99.90
35746;DHT22;21870;42.812;74.628;2023-03-15T09:49:43;15.30;99.90
35746;DHT22;21870;42.812;74.628;2023-03-15T09:55:45;15.30;99.90
35746;DHT22;21870;42.812;74.628;2023-03-15T09:57:57;15.40;99.90
35746;DHT22;21870;42.812;74.628;2023-03-15T10:00:43;15.30;99.90
35746;DHT22;21870;42.812;74.628;2023-03-15T10:06:19;15.40;99.90
35746;DHT22;21870;42.812;74.628;2023-03-15T10:08:46;15.40;99.90
35746;DHT22;21870;42.812;74.628;2023-03-15T10:11:19;15.20;99.90
35746;DHT22;21870;42.812;74.628;2023-03-15T10:16:46;15.00;99.90
35746;DHT22;21870;42.812;74.628;2023-03-15T10:21:53;15.00;99.90
35746;DHT22;21870;42.812;74.628;2023-03-15T10:30:22;15.10;99.90
35746;DHT22;21870;42.812;74.628;2023-03-15T10:35:37;15.10;99.90
35746;DHT22;21870;42.812;74.628;2023-03-15T10:38:13;15.00;99.90
35746;DHT22;21870;42.812;74.628;2023-03-15T10:40:44;15.00;99.90
35746;DHT22;21870;42.812;74.628;2023-03-15T10:43:22;15.00;99.90
35746;DHT22;21870;42.812;74.628;2023-03-15T10:46:01;15.00;99.90
35746;DHT22;21870;42.812;74.628;2023-03-15T10:48:29;15.10;99.90
35746;DHT22;21870;42.812;74.628;2023-03-15T10:50:56;15.10;99.90
35746;DHT22;21870;42.812;74.628;2023-03-15T10:53:23;15.10;99.90
35746;DHT22;21870;42.812;74.628;2023-03-15T10:56:02;15.10;99.90
35746;DHT22;21870;42.812;74.628;2023-03-15T10:58:40;15.00;99.90
35746;DHT22;21870;42.812;74.628;2023-03-15T11:01:10;14.90;99.90
35746;DHT22;21870;42.812;74.628;2023-03-15T11:03:40;15.00;99.90
35746;DHT22;21870;42.812;74.628;2023-03-15T11:06:20;15.00;99.90
35746;DHT22;21870;42.812;74.628;2023-03-15T11:08:47;14.90;99.90
35746;DHT22;21870;42.812;74.628;2023-03-15T11:11:13;15.00;99.90
35746;DHT22;21870;42.812;74.628;2023-03-15T11:13:39;15.00;99.90
35746;DHT22;21870;42.812;74.628;2023-03-15T11:18:59;15.00;99.90
35746;DHT22;21870;42.812;74.628;2023-03-15T11:21:31;15.00;99.90
35746;DHT22;21870;42.812;74.628;2023-03-15T11:24:03;14.90;99.90
35746;DHT22;21870;42.812;74.628;2023-03-15T11:26:38;14.90;99.90
35746;DHT22;21870;42.812;74.628;2023-03-15T11:29:15;14.90;99.90
35746;DHT22;21870;42.812;74.628;2023-03-15T11:31:43;14.80;99.90
35746;DHT22;21870;42.812;74.628;2023-03-15T11:34:26;14.70;99.90
35746;DHT22;21870;42.812;74.628;2023-03-15T11:36:59;14.70;99.90
35746;DHT22;21870;42.812;74.628;2023-03-15T11:42:16;14.70;99.90
35746;DHT22;21870;42.812;74.628;2023-03-15T11:44:49;14.70;99.90
35746;DHT22;21870;42.812;74.628;2023-03-15T11:47:23;14.60;99.90
35746;DHT22;21870;42.812;74.628;2023-03-15T11:49:54;14.60;99.90
35746;DHT22;21870;42.812;74.628;2023-03-15T11:52:23;14.50;99.90
35746;DHT22;21870;42.812;74.628;2023-03-15T11:54:53;14.60;99.90
35746;DHT22;21870;42.812;74.628;2023-03-15T11:57:46;14.50;99.90
35746;DHT22;21870;42.812;74.628;2023-03-15T12:03:30;14.50;99.90
35746;DHT22;21870;42.812;74.628;2023-03-15T12:07:02;14.50;99.90
35746;DHT22;21870;42.812;74.628;2023-03-15T12:08:58;14.40;99.90
35746;DHT22;21870;42.812;74.628;2023-03-15T12:16:29;14.40;99.90
35746;DHT22;21870;42.812;74.628;2023-03-15T12:19:15;14.30;99.90
35746;DHT22;21870;42.812;74.628;2023-03-15T12:21:57;14.30;99.90
35746;DHT22;21870;42.812;74.628;2023-03-15T12:24:29;14.20;99.90
35746;DHT22;21870;42.812;74.628;2023-03-15T12:29:28;14.30;99.90
35746;DHT22;21870;42.812;74.628;2023-03-15T12:32:04;14.30;99.90
35746;DHT22;21870;42.812;74.628;2023-03-15T12:34:47;14.20;99.90
35746;DHT22;21870;42.812;74.628;2023-03-15T12:37:26;14.20;99.90
35746;DHT22;21870;42.812;74.628;2023-03-15T12:47:46;14.00;99.90
35746;DHT22;21870;42.812;74.628;2023-03-15T12:55:51;13.70;99.90
35746;DHT22;21870;42.812;74.628;2023-03-15T12:58:19;13.60;99.90
35746;DHT22;21870;42.812;74.628;2023-03-15T13:00:47;13.60;99.90
35746;DHT22;21870;42.812;74.628;2023-03-15T13:03:18;13.50;99.90
35746;DHT22;21870;42.812;74.628;2023-03-15T13:08:23;13.50;99.90
35746;DHT22;21870;42.812;74.628;2023-03-15T13:13:24;13.50;99.90
35746;DHT22;21870;42.812;74.628;2023-03-15T13:24:56;12.70;99.90
35746;DHT22;21870;42.812;74.628;2023-03-15T13:27:43;12.40;99.90
35746;DHT22;21870;42.812;74.628;2023-03-15T13:30:37;12.20;99.90
35746;DHT22;21870;42.812;74.628;2023-03-15T13:33:22;12.10;99.90
35746;DHT22;21870;42.812;74.628;2023-03-15T13:35:58;12.00;99.90
35746;DHT22;21870;42.812;74.628;2023-03-15T13:38:48;11.90;99.90
35746;DHT22;21870;42.812;74.628;2023-03-15T13:43:46;11.90;99.90
35746;DHT22;21870;42.812;74.628;2023-03-15T13:46:14;12.00;99.90
35746;DHT22;21870;42.812;74.628;2023-03-15T13:48:42;12.00;99.90
35746;DHT22;21870;42.812;74.628;2023-03-15T13:51:24;12.00;99.90
35746;DHT22;21870;42.812;74.628;2023-03-15T13:54:35;12.10;99.90
35746;DHT22;21870;42.812;74.628;2023-03-15T13:56:53;12.20;99.90
35746;DHT22;21870;42.812;74.628;2023-03-15T13:59:26;12.20;99.90
35746;DHT22;21870;42.812;74.628;2023-03-15T14:01:55;12.20;99.90
35746;DHT22;21870;42.812;74.628;2023-03-15T14:04:23;12.20;99.90
35746;DHT22;21870;42.812;74.628;2023-03-15T14:06:50;12.30;99.90
35746;DHT22;21870;42.812;74.628;2023-03-15T14:09:28;12.40;99.90
35746;DHT22;21870;42.812;74.628;2023-03-15T14:12:05;12.40;99.90
35746;DHT22;21870;42.812;74.628;2023-03-15T14:14:35;12.40;99.90
35746;DHT22;21870;42.812;74.628;2023-03-15T14:17:23;12.50;99.90
35746;DHT22;21870;42.812;74.628;2023-03-15T14:19:54;12.50;99.90
35746;DHT22;21870;42.812;74.628;2023-03-15T14:22:21;12.50;99.90
35746;DHT22;21870;42.812;74.628;2023-03-15T14:24:49;12.50;99.90
35746;DHT22;21870;42.812;74.628;2023-03-15T14:27:19;12.40;99.90
35746;DHT22;21870;42.812;74.628;2023-03-15T14:29:51;12.50;99.90
35746;DHT22;21870;42.812;74.628;2023-03-15T14:35:16;12.50;99.90
35746;DHT22;21870;42.812;74.628;2023-03-15T14:37:43;12.50;99.90
35746;DHT22;21870;42.812;74.628;2023-03-15T14:40:32;12.50;99.90
35746;DHT22;21870;42.812;74.628;2023-03-15T14:43:03;12.50;99.90
35746;DHT22;21870;42.812;74.628;2023-03-15T14:45:31;12.50;99.90
35746;DHT22;21870;42.812;74.628;2023-03-15T14:48:01;12.50;99.90
35746;DHT22;21870;42.812;74.628;2023-03-15T14:50:35;12.50;99.90
35746;DHT22;21870;42.812;74.628;2023-03-15T14:53:02;12.50;99.90
35746;DHT22;21870;42.812;74.628;2023-03-15T14:55:34;12.50;99.90
35746;DHT22;21870;42.812;74.628;2023-03-15T14:58:02;12.50;99.90
35746;DHT22;21870;42.812;74.628;2023-03-15T15:00:29;12.50;99.90
35746;DHT22;21870;42.812;74.628;2023-03-15T15:02:57;12.40;99.90
35746;DHT22;21870;42.812;74.628;2023-03-15T15:05:24;12.40;99.90
35746;DHT22;21870;42.812;74.628;2023-03-15T15:07:51;12.50;99.90
35746;DHT22;21870;42.812;74.628;2023-03-15T15:10:21;12.50;99.90
35746;DHT22;21870;42.812;74.628;2023-03-15T15:12:48;12.50;99.90
35746;DHT22;21870;42.812;74.628;2023-03-15T15:15:17;12.50;99.90
35746;DHT22;21870;42.812;74.628;2023-03-15T15:17:44;12.40;99.90
35746;DHT22;21870;42.812;74.628;2023-03-15T15:20:11;12.50;99.90
35746;DHT22;21870;42.812;74.628;2023-03-15T15:22:38;12.50;99.90
35746;DHT22;21870;42.812;74.628;2023-03-15T15:25:15;12.50;99.90
35746;DHT22;21870;42.812;74.628;2023-03-15T15:27:41;12.50;99.90
35746;DHT22;21870;42.812;74.628;2023-03-15T15:30:11;12.30;99.90
35746;DHT22;21870;42.812;74.628;2023-03-15T15:32:38;12.30;99.90
35746;DHT22;21870;42.812;74.628;2023-03-15T15:35:06;12.30;99.90
35746;DHT22;21870;42.812;74.628;2023-03-15T15:37:34;12.30;99.90
35746;DHT22;21870;42.812;74.628;2023-03-15T15:40:00;12.20;99.90
35746;DHT22;21870;42.812;74.628;2023-03-15T15:42:26;12.20;99.90
35746;DHT22;21870;42.812;74.628;2023-03-15T15:44:52;12.20;99.90
35746;DHT22;21870;42.812;74.628;2023-03-15T15:47:18;12.20;99.90
35746;DHT22;21870;42.812;74.628;2023-03-15T15:49:44;12.10;99.90
35746;DHT22;21870;42.812;74.628;2023-03-15T15:52:13;12.20;99.90
35746;DHT22;21870;42.812;74.628;2023-03-15T15:54:39;12.20;99.90
35746;DHT22;21870;42.812;74.628;2023-03-15T15:57:08;12.30;99.90
35746;DHT22;21870;42.812;74.628;2023-03-15T15:59:35;12.30;99.90
35746;DHT22;21870;42.812;74.628;2023-03-15T16:02:01;12.30;99.90
35746;DHT22;21870;42.812;74.628;2023-03-15T16:04:27;12.40;99.90
35746;DHT22;21870;42.812;74.628;2023-03-15T16:06:56;12.30;99.90
35746;DHT22;21870;42.812;74.628;2023-03-15T16:09:25;12.40;99.90
35746;DHT22;21870;42.812;74.628;2023-03-15T16:11:51;12.40;99.90
35746;DHT22;21870;42.812;74.628;2023-03-15T16:14:17;12.30;99.90
35746;DHT22;21870;42.812;74.628;2023-03-15T16:16:43;12.20;99.90
35746;DHT22;21870;42.812;74.628;2023-03-15T16:19:12;12.20;99.90
35746;DHT22;21870;42.812;74.628;2023-03-15T16:21:43;12.10;99.90
35746;DHT22;21870;42.812;74.628;2023-03-15T16:24:24;12.10;99.90
35746;DHT22;21870;42.812;74.628;2023-03-15T16:27:12;12.10;99.90
35746;DHT22;21870;42.812;74.628;2023-03-15T16:29:43;12.10;99.90
35746;DHT22;21870;42.812;74.628;2023-03-15T16:32:15;12.10;99.90
35746;DHT22;21870;42.812;74.628;2023-03-15T16:34:41;12.10;99.90
35746;DHT22;21870;42.812;74.628;2023-03-15T16:37:28;12.10;99.90
35746;DHT22;21870;42.812;74.628;2023-03-15T16:39:59;11.80;99.90
35746;DHT22;21870;42.812;74.628;2023-03-15T16:42:26;11.60;99.90
35746;DHT22;21870;42.812;74.628;2023-03-15T16:44:54;11.60;99.90
35746;DHT22;21870;42.812;74.628;2023-03-15T16:47:21;11.50;99.90